<?xml version="1.0" encoding="UTF-8" standalone="no" ?>
<gpx xmlns="http://www.topografix.com/GPX/1/1" xmlns:xsi="http://www.w3.org/2001/XMLSchema-instance" xsi:schemaLocation="http://www.topografix.com/GPX/1/1 http://www.topografix.com/GPX/1/1/gpx.xsd" version="1.1" creator="VisuGPX - https://www.visugpx.com">
  <metadata>
    <name>46.Sabadel Lacapelette</name>
    <desc><![CDATA[Randonnée du 10.04.2017 ;animée par Gilles 11Km D 200m]]></desc>
  </metadata>
  <trk>
    <name><![CDATA[OR-6651515--Sabadel-Lauzès:Artix Lacapellette]]></name>
    <trkseg>
      <trkpt lat="44.56702" lon="1.60264">
        <ele>281</ele>
        <time>2017-04-02T21:22:52Z</time>
      </trkpt>
      <trkpt lat="44.56749" lon="1.60292">
        <ele>276</ele>
        <time>2017-04-02T21:24:52Z</time>
      </trkpt>
      <trkpt lat="44.56752" lon="1.60408">
        <ele>278</ele>
        <time>2017-04-02T21:26:52Z</time>
      </trkpt>
      <trkpt lat="44.56749" lon="1.60513">
        <ele>289</ele>
        <time>2017-04-02T21:28:52Z</time>
      </trkpt>
      <trkpt lat="44.56763" lon="1.60612">
        <ele>302</ele>
        <time>2017-04-02T21:30:52Z</time>
      </trkpt>
      <trkpt lat="44.56754" lon="1.60646">
        <ele>303</ele>
        <time>2017-04-02T21:32:52Z</time>
      </trkpt>
      <trkpt lat="44.56797" lon="1.6073">
        <ele>307</ele>
        <time>2017-04-02T21:34:52Z</time>
      </trkpt>
      <trkpt lat="44.56801" lon="1.60812">
        <ele>306</ele>
        <time>2017-04-02T21:36:52Z</time>
      </trkpt>
      <trkpt lat="44.56832" lon="1.60809">
        <ele>309</ele>
        <time>2017-04-02T21:38:52Z</time>
      </trkpt>
      <trkpt lat="44.56866" lon="1.60726">
        <ele>310</ele>
        <time>2017-04-02T21:40:52Z</time>
      </trkpt>
      <trkpt lat="44.5695" lon="1.60724">
        <ele>309</ele>
        <time>2017-04-02T21:42:52Z</time>
      </trkpt>
      <trkpt lat="44.57041" lon="1.60681">
        <ele>308</ele>
        <time>2017-04-02T21:44:52Z</time>
      </trkpt>
      <trkpt lat="44.57102" lon="1.60683">
        <ele>308</ele>
        <time>2017-04-02T21:46:52Z</time>
      </trkpt>
      <trkpt lat="44.57113" lon="1.60807">
        <ele>304</ele>
        <time>2017-04-02T21:48:52Z</time>
      </trkpt>
      <trkpt lat="44.57153" lon="1.60917">
        <ele>305</ele>
        <time>2017-04-02T21:50:52Z</time>
      </trkpt>
      <trkpt lat="44.57116" lon="1.61043">
        <ele>317</ele>
        <time>2017-04-02T21:52:52Z</time>
      </trkpt>
      <trkpt lat="44.5708" lon="1.61155">
        <ele>322</ele>
        <time>2017-04-02T21:54:52Z</time>
      </trkpt>
      <trkpt lat="44.57073" lon="1.61303">
        <ele>319</ele>
        <time>2017-04-02T21:56:52Z</time>
      </trkpt>
      <trkpt lat="44.57135" lon="1.61408">
        <ele>324</ele>
        <time>2017-04-02T21:58:52Z</time>
      </trkpt>
      <trkpt lat="44.57105" lon="1.61545">
        <ele>323</ele>
        <time>2017-04-02T22:00:52Z</time>
      </trkpt>
      <trkpt lat="44.56951" lon="1.61794">
        <ele>325</ele>
        <time>2017-04-02T22:02:52Z</time>
      </trkpt>
      <trkpt lat="44.56995" lon="1.61932">
        <ele>327</ele>
        <time>2017-04-02T22:04:52Z</time>
      </trkpt>
      <trkpt lat="44.56937" lon="1.62056">
        <ele>320</ele>
        <time>2017-04-02T22:06:52Z</time>
      </trkpt>
      <trkpt lat="44.57026" lon="1.62101">
        <ele>318</ele>
        <time>2017-04-02T22:08:52Z</time>
      </trkpt>
      <trkpt lat="44.57069" lon="1.62146">
        <ele>317</ele>
        <time>2017-04-02T22:10:52Z</time>
      </trkpt>
      <trkpt lat="44.57138" lon="1.622">
        <ele>314</ele>
        <time>2017-04-02T22:12:52Z</time>
      </trkpt>
      <trkpt lat="44.57185" lon="1.622">
        <ele>311</ele>
        <time>2017-04-02T22:14:52Z</time>
      </trkpt>
      <trkpt lat="44.5724" lon="1.62174">
        <ele>308</ele>
        <time>2017-04-02T22:16:52Z</time>
      </trkpt>
      <trkpt lat="44.5731" lon="1.62176">
        <ele>303</ele>
        <time>2017-04-02T22:18:52Z</time>
      </trkpt>
      <trkpt lat="44.57338" lon="1.62374">
        <ele>301</ele>
        <time>2017-04-02T22:20:52Z</time>
      </trkpt>
      <trkpt lat="44.57376" lon="1.62455">
        <ele>304</ele>
        <time>2017-04-02T22:22:52Z</time>
      </trkpt>
      <trkpt lat="44.57402" lon="1.62573">
        <ele>311</ele>
        <time>2017-04-02T22:24:52Z</time>
      </trkpt>
      <trkpt lat="44.57436" lon="1.62642">
        <ele>316</ele>
        <time>2017-04-02T22:26:52Z</time>
      </trkpt>
      <trkpt lat="44.57431" lon="1.62704">
        <ele>316</ele>
        <time>2017-04-02T22:28:52Z</time>
      </trkpt>
      <trkpt lat="44.57532" lon="1.62887">
        <ele>319</ele>
        <time>2017-04-02T22:30:52Z</time>
      </trkpt>
      <trkpt lat="44.5759" lon="1.63002">
        <ele>322</ele>
        <time>2017-04-02T22:32:52Z</time>
      </trkpt>
      <trkpt lat="44.57634" lon="1.63078">
        <ele>316</ele>
        <time>2017-04-02T22:34:52Z</time>
      </trkpt>
      <trkpt lat="44.57642" lon="1.63155">
        <ele>315</ele>
        <time>2017-04-02T22:36:52Z</time>
      </trkpt>
      <trkpt lat="44.57734" lon="1.63277">
        <ele>315</ele>
        <time>2017-04-02T22:38:52Z</time>
      </trkpt>
      <trkpt lat="44.5777" lon="1.63281">
        <ele>317</ele>
        <time>2017-04-02T22:40:52Z</time>
      </trkpt>
      <trkpt lat="44.57832" lon="1.63374">
        <ele>324</ele>
        <time>2017-04-02T22:42:52Z</time>
      </trkpt>
      <trkpt lat="44.57836" lon="1.63412">
        <ele>326</ele>
        <time>2017-04-02T22:44:52Z</time>
      </trkpt>
      <trkpt lat="44.57899" lon="1.63485">
        <ele>329</ele>
        <time>2017-04-02T22:46:52Z</time>
      </trkpt>
      <trkpt lat="44.58038" lon="1.63747">
        <ele>316</ele>
        <time>2017-04-02T22:48:52Z</time>
      </trkpt>
      <trkpt lat="44.58119" lon="1.63696">
        <ele>316</ele>
        <time>2017-04-02T22:50:52Z</time>
      </trkpt>
      <trkpt lat="44.5825" lon="1.63586">
        <ele>321</ele>
        <time>2017-04-02T22:52:52Z</time>
      </trkpt>
      <trkpt lat="44.58322" lon="1.63496">
        <ele>326</ele>
        <time>2017-04-02T22:54:52Z</time>
      </trkpt>
      <trkpt lat="44.58363" lon="1.63472">
        <ele>327</ele>
        <time>2017-04-02T22:56:52Z</time>
      </trkpt>
      <trkpt lat="44.58408" lon="1.63397">
        <ele>331</ele>
        <time>2017-04-02T22:58:52Z</time>
      </trkpt>
      <trkpt lat="44.58432" lon="1.63333">
        <ele>331</ele>
        <time>2017-04-02T23:00:52Z</time>
      </trkpt>
      <trkpt lat="44.58443" lon="1.63228">
        <ele>331</ele>
        <time>2017-04-02T23:02:52Z</time>
      </trkpt>
      <trkpt lat="44.58548" lon="1.63105">
        <ele>340</ele>
        <time>2017-04-02T23:04:52Z</time>
      </trkpt>
      <trkpt lat="44.58674" lon="1.63039">
        <ele>353</ele>
        <time>2017-04-02T23:06:52Z</time>
      </trkpt>
      <trkpt lat="44.58749" lon="1.6297">
        <ele>359</ele>
        <time>2017-04-02T23:08:52Z</time>
      </trkpt>
      <trkpt lat="44.58779" lon="1.62921">
        <ele>356</ele>
        <time>2017-04-02T23:10:52Z</time>
      </trkpt>
      <trkpt lat="44.58836" lon="1.62917">
        <ele>354</ele>
        <time>2017-04-02T23:12:52Z</time>
      </trkpt>
      <trkpt lat="44.5888" lon="1.62839">
        <ele>350</ele>
        <time>2017-04-02T23:14:52Z</time>
      </trkpt>
      <trkpt lat="44.58926" lon="1.62674">
        <ele>355</ele>
        <time>2017-04-02T23:16:52Z</time>
      </trkpt>
      <trkpt lat="44.58988" lon="1.62719">
        <ele>354</ele>
        <time>2017-04-02T23:18:52Z</time>
      </trkpt>
      <trkpt lat="44.59086" lon="1.6273">
        <ele>348</ele>
        <time>2017-04-02T23:20:52Z</time>
      </trkpt>
      <trkpt lat="44.59123" lon="1.627">
        <ele>351</ele>
        <time>2017-04-02T23:22:52Z</time>
      </trkpt>
      <trkpt lat="44.59181" lon="1.62728">
        <ele>357</ele>
        <time>2017-04-02T23:24:52Z</time>
      </trkpt>
      <trkpt lat="44.59215" lon="1.62706">
        <ele>358</ele>
        <time>2017-04-02T23:26:52Z</time>
      </trkpt>
      <trkpt lat="44.59218" lon="1.62618">
        <ele>364</ele>
        <time>2017-04-02T23:28:52Z</time>
      </trkpt>
      <trkpt lat="44.5926" lon="1.62502">
        <ele>377</ele>
        <time>2017-04-02T23:30:52Z</time>
      </trkpt>
      <trkpt lat="44.593" lon="1.62404">
        <ele>387</ele>
        <time>2017-04-02T23:32:52Z</time>
      </trkpt>
      <trkpt lat="44.59239" lon="1.62247">
        <ele>400</ele>
        <time>2017-04-02T23:34:52Z</time>
      </trkpt>
      <trkpt lat="44.59189" lon="1.62236">
        <ele>396</ele>
        <time>2017-04-02T23:36:52Z</time>
      </trkpt>
      <trkpt lat="44.59126" lon="1.62241">
        <ele>392</ele>
        <time>2017-04-02T23:38:52Z</time>
      </trkpt>
      <trkpt lat="44.59074" lon="1.62266">
        <ele>386</ele>
        <time>2017-04-02T23:40:52Z</time>
      </trkpt>
      <trkpt lat="44.58991" lon="1.62245">
        <ele>381</ele>
        <time>2017-04-02T23:42:52Z</time>
      </trkpt>
      <trkpt lat="44.58949" lon="1.62185">
        <ele>376</ele>
        <time>2017-04-02T23:44:52Z</time>
      </trkpt>
      <trkpt lat="44.58886" lon="1.62174">
        <ele>372</ele>
        <time>2017-04-02T23:46:52Z</time>
      </trkpt>
      <trkpt lat="44.58952" lon="1.62048">
        <ele>370</ele>
        <time>2017-04-02T23:48:52Z</time>
      </trkpt>
      <trkpt lat="44.58958" lon="1.61936">
        <ele>364</ele>
        <time>2017-04-02T23:50:52Z</time>
      </trkpt>
      <trkpt lat="44.58904" lon="1.6156">
        <ele>341</ele>
        <time>2017-04-02T23:52:52Z</time>
      </trkpt>
      <trkpt lat="44.58849" lon="1.6149">
        <ele>337</ele>
        <time>2017-04-02T23:54:52Z</time>
      </trkpt>
      <trkpt lat="44.58764" lon="1.61397">
        <ele>333</ele>
        <time>2017-04-02T23:56:52Z</time>
      </trkpt>
      <trkpt lat="44.58669" lon="1.61297">
        <ele>328</ele>
        <time>2017-04-02T23:58:52Z</time>
      </trkpt>
      <trkpt lat="44.58609" lon="1.61284">
        <ele>324</ele>
        <time>2017-04-03T00:00:52Z</time>
      </trkpt>
      <trkpt lat="44.58527" lon="1.61194">
        <ele>323</ele>
        <time>2017-04-03T00:02:52Z</time>
      </trkpt>
      <trkpt lat="44.58446" lon="1.61187">
        <ele>331</ele>
        <time>2017-04-03T00:04:52Z</time>
      </trkpt>
      <trkpt lat="44.5842" lon="1.61157">
        <ele>338</ele>
        <time>2017-04-03T00:06:52Z</time>
      </trkpt>
      <trkpt lat="44.58365" lon="1.61138">
        <ele>341</ele>
        <time>2017-04-03T00:08:52Z</time>
      </trkpt>
      <trkpt lat="44.58331" lon="1.61084">
        <ele>345</ele>
        <time>2017-04-03T00:10:52Z</time>
      </trkpt>
      <trkpt lat="44.58266" lon="1.61022">
        <ele>345</ele>
        <time>2017-04-03T00:12:52Z</time>
      </trkpt>
      <trkpt lat="44.58223" lon="1.61015">
        <ele>346</ele>
        <time>2017-04-03T00:14:52Z</time>
      </trkpt>
      <trkpt lat="44.58177" lon="1.60949">
        <ele>345</ele>
        <time>2017-04-03T00:16:52Z</time>
      </trkpt>
      <trkpt lat="44.58096" lon="1.61013">
        <ele>345</ele>
        <time>2017-04-03T00:18:52Z</time>
      </trkpt>
      <trkpt lat="44.58053" lon="1.6099">
        <ele>342</ele>
        <time>2017-04-03T00:20:52Z</time>
      </trkpt>
      <trkpt lat="44.58024" lon="1.60906">
        <ele>336</ele>
        <time>2017-04-03T00:22:52Z</time>
      </trkpt>
      <trkpt lat="44.57926" lon="1.60925">
        <ele>332</ele>
        <time>2017-04-03T00:24:52Z</time>
      </trkpt>
      <trkpt lat="44.57845" lon="1.60953">
        <ele>328</ele>
        <time>2017-04-03T00:26:52Z</time>
      </trkpt>
      <trkpt lat="44.57796" lon="1.6088">
        <ele>324</ele>
        <time>2017-04-03T00:28:52Z</time>
      </trkpt>
      <trkpt lat="44.57692" lon="1.60859">
        <ele>322</ele>
        <time>2017-04-03T00:30:52Z</time>
      </trkpt>
      <trkpt lat="44.57627" lon="1.60767">
        <ele>316</ele>
        <time>2017-04-03T00:32:52Z</time>
      </trkpt>
      <trkpt lat="44.57685" lon="1.60432">
        <ele>330</ele>
        <time>2017-04-03T00:34:52Z</time>
      </trkpt>
      <trkpt lat="44.57744" lon="1.60267">
        <ele>337</ele>
        <time>2017-04-03T00:36:52Z</time>
      </trkpt>
      <trkpt lat="44.57671" lon="1.60078">
        <ele>328</ele>
        <time>2017-04-03T00:38:52Z</time>
      </trkpt>
      <trkpt lat="44.57631" lon="1.60005">
        <ele>329</ele>
        <time>2017-04-03T00:40:52Z</time>
      </trkpt>
      <trkpt lat="44.57575" lon="1.60011">
        <ele>327</ele>
        <time>2017-04-03T00:42:52Z</time>
      </trkpt>
      <trkpt lat="44.575" lon="1.60101">
        <ele>321</ele>
        <time>2017-04-03T00:44:52Z</time>
      </trkpt>
      <trkpt lat="44.57419" lon="1.60125">
        <ele>309</ele>
        <time>2017-04-03T00:46:52Z</time>
      </trkpt>
      <trkpt lat="44.57368" lon="1.60157">
        <ele>308</ele>
        <time>2017-04-03T00:48:52Z</time>
      </trkpt>
      <trkpt lat="44.57294" lon="1.60149">
        <ele>301</ele>
        <time>2017-04-03T00:50:52Z</time>
      </trkpt>
      <trkpt lat="44.57196" lon="1.60146">
        <ele>293</ele>
        <time>2017-04-03T00:52:52Z</time>
      </trkpt>
      <trkpt lat="44.57159" lon="1.60157">
        <ele>289</ele>
        <time>2017-04-03T00:54:52Z</time>
      </trkpt>
      <trkpt lat="44.5705" lon="1.60286">
        <ele>291</ele>
        <time>2017-04-03T00:56:52Z</time>
      </trkpt>
      <trkpt lat="44.57009" lon="1.60222">
        <ele>288</ele>
        <time>2017-04-03T00:58:52Z</time>
      </trkpt>
      <trkpt lat="44.5691" lon="1.60138">
        <ele>282</ele>
        <time>2017-04-03T01:00:52Z</time>
      </trkpt>
      <trkpt lat="44.56821" lon="1.60213">
        <ele>283</ele>
        <time>2017-04-03T01:02:52Z</time>
      </trkpt>
      <trkpt lat="44.56758" lon="1.60245">
        <ele>277</ele>
        <time>2017-04-03T01:04:52Z</time>
      </trkpt>
      <trkpt lat="44.56733" lon="1.6031">
        <ele>277</ele>
        <time>2017-04-03T01:06:52Z</time>
      </trkpt>
    </trkseg>
  </trk>
</gpx>